sensor_id;sensor_type;location;lat;lon;timestamp;pressure;altitude;pressure_sealevel;temperature;humidity
81033;BME280;70514;52.478;6.102;2023-07-28T00:02:05;100472.97;;;19.70;62.90
81033;BME280;70514;52.478;6.102;2023-07-28T00:04:35;100483.84;;;19.82;67.27
81033;BME280;70514;52.478;6.102;2023-07-28T00:07:05;100479.22;;;20.14;62.06
81033;BME280;70514;52.478;6.102;2023-07-28T00:09:34;100477.72;;;20.07;67.81
81033;BME280;70514;52.478;6.102;2023-07-28T00:12:04;100476.19;;;20.49;59.55
81033;BME280;70514;52.478;6.102;2023-07-28T00:14:33;100472.47;;;20.55;58.24
81033;BME280;70514;52.478;6.102;2023-07-28T00:17:02;100480.06;;;20.39;62.19
81033;BME280;70514;52.478;6.102;2023-07-28T00:19:31;100481.66;;;20.18;67.57
81033;BME280;70514;52.478;6.102;2023-07-28T00:22:01;100485.22;;;20.41;59.07
81033;BME280;70514;52.478;6.102;2023-07-28T00:24:30;100478.56;;;20.55;59.23
81033;BME280;70514;52.478;6.102;2023-07-28T00:27:01;100489.34;;;20.23;64.11
81033;BME280;70514;52.478;6.102;2023-07-28T00:29:30;100485.22;;;19.92;62.28
81033;BME280;70514;52.478;6.102;2023-07-28T00:31:59;100475.47;;;20.21;59.93
81033;BME280;70514;52.478;6.102;2023-07-28T00:34:28;100477.94;;;20.25;62.37
81033;BME280;70514;52.478;6.102;2023-07-28T00:36:57;100473.59;;;20.24;61.97
81033;BME280;70514;52.478;6.102;2023-07-28T00:39:26;100473.09;;;20.38;59.69
81033;BME280;70514;52.478;6.102;2023-07-28T00:41:55;100468.03;;;19.85;65.65
81033;BME280;70514;52.478;6.102;2023-07-28T00:44:24;100468.63;;;20.17;60.63
81033;BME280;70514;52.478;6.102;2023-07-28T00:46:54;100466.16;;;20.37;59.82
81033;BME280;70514;52.478;6.102;2023-07-28T00:49:23;100466.81;;;20.44;59.95
81033;BME280;70514;52.478;6.102;2023-07-28T00:51:52;100464.94;;;20.22;60.64
81033;BME280;70514;52.478;6.102;2023-07-28T00:54:21;100462.38;;;20.21;61.93
81033;BME280;70514;52.478;6.102;2023-07-28T00:56:51;100466.16;;;20.37;61.54
81033;BME280;70514;52.478;6.102;2023-07-28T00:59:20;100460.06;;;20.13;61.46
81033;BME280;70514;52.478;6.102;2023-07-28T01:01:49;100458.78;;;20.25;61.62
81033;BME280;70514;52.478;6.102;2023-07-28T01:04:19;100469.53;;;20.41;63.67
81033;BME280;70514;52.478;6.102;2023-07-28T01:06:56;100473.06;;;20.40;58.98
81033;BME280;70514;52.478;6.102;2023-07-28T01:09:34;100469.81;;;20.10;69.21
81033;BME280;70514;52.478;6.102;2023-07-28T01:12:08;100470.88;;;20.27;60.35
81033;BME280;70514;52.478;6.102;2023-07-28T01:14:40;100479.00;;;20.20;62.33
81033;BME280;70514;52.478;6.102;2023-07-28T01:17:09;100483.88;;;20.29;62.45
81033;BME280;70514;52.478;6.102;2023-07-28T01:19:38;100483.22;;;20.24;60.50
81033;BME280;70514;52.478;6.102;2023-07-28T01:25:12;100474.88;;;20.38;60.98
81033;BME280;70514;52.478;6.102;2023-07-28T01:27:44;100481.59;;;20.45;59.51
81033;BME280;70514;52.478;6.102;2023-07-28T01:30:14;100477.75;;;20.53;59.01
81033;BME280;70514;52.478;6.102;2023-07-28T01:32:44;100479.91;;;20.19;63.10
81033;BME280;70514;52.478;6.102;2023-07-28T01:35:13;100479.69;;;20.25;59.92
81033;BME280;70514;52.478;6.102;2023-07-28T01:37:42;100485.50;;;20.33;58.98
81033;BME280;70514;52.478;6.102;2023-07-28T01:40:12;100487.38;;;20.53;58.87
81033;BME280;70514;52.478;6.102;2023-07-28T01:42:41;100485.72;;;20.50;60.29
81033;BME280;70514;52.478;6.102;2023-07-28T01:45:10;100473.59;;;20.24;60.82
81033;BME280;70514;52.478;6.102;2023-07-28T01:47:39;100488.63;;;20.43;62.06
81033;BME280;70514;52.478;6.102;2023-07-28T01:50:09;100489.78;;;20.35;60.30
81033;BME280;70514;52.478;6.102;2023-07-28T01:52:38;100492.16;;;20.42;59.16
81033;BME280;70514;52.478;6.102;2023-07-28T01:55:07;100489.03;;;20.07;63.77
81033;BME280;70514;52.478;6.102;2023-07-28T01:57:39;100487.91;;;20.39;59.53
81033;BME280;70514;52.478;6.102;2023-07-28T02:00:10;100487.09;;;20.37;59.37
81033;BME280;70514;52.478;6.102;2023-07-28T02:02:39;100479.31;;;20.35;58.82
81033;BME280;70514;52.478;6.102;2023-07-28T02:05:08;100479.06;;;20.42;59.91
81033;BME280;70514;52.478;6.102;2023-07-28T02:07:38;100491.41;;;20.15;66.09
81033;BME280;70514;52.478;6.102;2023-07-28T02:10:07;100481.44;;;20.24;58.94
81033;BME280;70514;52.478;6.102;2023-07-28T02:12:37;100488.59;;;20.19;68.64
81033;BME280;70514;52.478;6.102;2023-07-28T02:15:07;100484.06;;;19.76;65.94
81033;BME280;70514;52.478;6.102;2023-07-28T02:17:37;100480.31;;;19.83;63.03
81033;BME280;70514;52.478;6.102;2023-07-28T02:20:06;100486.31;;;20.35;61.75
81033;BME280;70514;52.478;6.102;2023-07-28T02:22:39;100488.81;;;20.13;61.91
81033;BME280;70514;52.478;6.102;2023-07-28T02:25:09;100485.81;;;20.24;59.57
81033;BME280;70514;52.478;6.102;2023-07-28T02:27:39;100492.63;;;20.28;60.88
81033;BME280;70514;52.478;6.102;2023-07-28T02:30:08;100488.97;;;20.57;60.64
81033;BME280;70514;52.478;6.102;2023-07-28T02:32:39;100489.25;;;20.49;61.85
81033;BME280;70514;52.478;6.102;2023-07-28T02:35:08;100493.81;;;20.44;59.58
81033;BME280;70514;52.478;6.102;2023-07-28T02:37:39;100493.38;;;20.08;69.78
81033;BME280;70514;52.478;6.102;2023-07-28T02:40:09;100487.25;;;20.09;61.10
81033;BME280;70514;52.478;6.102;2023-07-28T02:42:38;100495.78;;;20.38;59.46
81033;BME280;70514;52.478;6.102;2023-07-28T02:45:07;100492.63;;;20.28;58.48
81033;BME280;70514;52.478;6.102;2023-07-28T02:47:39;100488.44;;;20.24;63.81
81033;BME280;70514;52.478;6.102;2023-07-28T02:50:08;100491.44;;;20.13;63.37
81033;BME280;70514;52.478;6.102;2023-07-28T02:52:37;100496.03;;;20.07;66.10
81033;BME280;70514;52.478;6.102;2023-07-28T02:55:07;100505.38;;;20.14;60.36
81033;BME280;70514;52.478;6.102;2023-07-28T02:57:36;100504.47;;;20.15;63.25
81033;BME280;70514;52.478;6.102;2023-07-28T03:00:06;100498.94;;;20.22;59.96
81033;BME280;70514;52.478;6.102;2023-07-28T03:02:39;100500.00;;;20.17;60.05
81033;BME280;70514;52.478;6.102;2023-07-28T03:05:09;100506.88;;;20.44;58.71
81033;BME280;70514;52.478;6.102;2023-07-28T03:07:38;100505.63;;;20.54;61.19
81033;BME280;70514;52.478;6.102;2023-07-28T03:10:07;100508.94;;;20.59;57.28
81033;BME280;70514;52.478;6.102;2023-07-28T03:12:37;100504.63;;;20.35;58.79
81033;BME280;70514;52.478;6.102;2023-07-28T03:15:06;100510.91;;;20.53;59.02
81033;BME280;70514;52.478;6.102;2023-07-28T03:17:35;100509.09;;;20.55;57.77
81033;BME280;70514;52.478;6.102;2023-07-28T03:20:05;100506.03;;;20.67;57.30
81033;BME280;70514;52.478;6.102;2023-07-28T03:22:35;100513.19;;;20.39;60.20
81033;BME280;70514;52.478;6.102;2023-07-28T03:25:04;100510.81;;;20.32;59.95
81033;BME280;70514;52.478;6.102;2023-07-28T03:27:34;100515.59;;;20.45;60.57
81033;BME280;70514;52.478;6.102;2023-07-28T03:30:04;100523.94;;;20.06;70.78
81033;BME280;70514;52.478;6.102;2023-07-28T03:32:36;100516.16;;;20.28;58.48
81033;BME280;70514;52.478;6.102;2023-07-28T03:35:07;100519.22;;;20.16;65.56
81033;BME280;70514;52.478;6.102;2023-07-28T03:37:36;100526.81;;;20.23;65.97
81033;BME280;70514;52.478;6.102;2023-07-28T03:40:06;100523.78;;;20.35;59.12
81033;BME280;70514;52.478;6.102;2023-07-28T03:42:35;100526.81;;;20.47;59.70
81033;BME280;70514;52.478;6.102;2023-07-28T03:45:06;100534.41;;;20.54;59.58
81033;BME280;70514;52.478;6.102;2023-07-28T03:47:35;100538.72;;;20.55;61.12
81033;BME280;70514;52.478;6.102;2023-07-28T03:50:04;100534.63;;;20.48;59.46
81033;BME280;70514;52.478;6.102;2023-07-28T03:52:33;100536.13;;;20.55;58.26
81033;BME280;70514;52.478;6.102;2023-07-28T03:55:03;100530.88;;;20.55;57.86
81033;BME280;70514;52.478;6.102;2023-07-28T03:57:32;100535.09;;;20.59;58.41
81033;BME280;70514;52.478;6.102;2023-07-28T04:00:02;100535.25;;;20.55;57.88
81033;BME280;70514;52.478;6.102;2023-07-28T04:02:31;100533.72;;;20.49;58.95
81033;BME280;70514;52.478;6.102;2023-07-28T04:05:00;100542.81;;;20.39;59.66
81033;BME280;70514;52.478;6.102;2023-07-28T04:07:30;100541.63;;;20.48;57.92
81033;BME280;70514;52.478;6.102;2023-07-28T04:09:59;100551.88;;;20.29;65.14
81033;BME280;70514;52.478;6.102;2023-07-28T04:12:28;100546.50;;;20.09;64.02
81033;BME280;70514;52.478;6.102;2023-07-28T04:14:57;100546.91;;;20.21;58.67
81033;BME280;70514;52.478;6.102;2023-07-28T04:17:27;100538.66;;;20.33;59.19
81033;BME280;70514;52.478;6.102;2023-07-28T04:19:56;100542.66;;;20.19;59.27
81033;BME280;70514;52.478;6.102;2023-07-28T04:22:26;100546.22;;;20.16;61.17
81033;BME280;70514;52.478;6.102;2023-07-28T04:24:55;100544.78;;;20.32;59.24
81033;BME280;70514;52.478;6.102;2023-07-28T04:27:24;100549.69;;;19.92;66.25
81033;BME280;70514;52.478;6.102;2023-07-28T04:29:53;100549.06;;;19.85;60.71
81033;BME280;70514;52.478;6.102;2023-07-28T04:32:22;100554.13;;;20.15;65.51
81033;BME280;70514;52.478;6.102;2023-07-28T04:34:52;100552.16;;;19.97;61.63
81033;BME280;70514;52.478;6.102;2023-07-28T04:37:22;100559.13;;;20.21;61.88
81033;BME280;70514;52.478;6.102;2023-07-28T04:39:51;100561.28;;;20.10;67.54
81033;BME280;70514;52.478;6.102;2023-07-28T04:42:20;100563.44;;;20.22;63.46
81033;BME280;70514;52.478;6.102;2023-07-28T04:44:50;100568.69;;;20.22;59.71
81033;BME280;70514;52.478;6.102;2023-07-28T04:47:19;100569.66;;;20.19;59.89
81033;BME280;70514;52.478;6.102;2023-07-28T04:49:48;100572.59;;;20.10;60.51
81033;BME280;70514;52.478;6.102;2023-07-28T04:52:17;100568.19;;;19.86;62.05
81033;BME280;70514;52.478;6.102;2023-07-28T04:54:46;100579.69;;;20.07;60.48
81033;BME280;70514;52.478;6.102;2023-07-28T04:57:15;100578.81;;;20.06;60.12
81033;BME280;70514;52.478;6.102;2023-07-28T04:59:47;100576.25;;;20.31;57.86
81033;BME280;70514;52.478;6.102;2023-07-28T05:02:16;100577.84;;;20.10;59.64
81033;BME280;70514;52.478;6.102;2023-07-28T05:04:45;100577.06;;;20.07;69.19
81033;BME280;70514;52.478;6.102;2023-07-28T05:07:14;100578.63;;;20.12;60.99
81033;BME280;70514;52.478;6.102;2023-07-28T05:09:43;100579.44;;;20.39;58.56
81033;BME280;70514;52.478;6.102;2023-07-28T05:12:13;100581.38;;;20.34;67.89
81033;BME280;70514;52.478;6.102;2023-07-28T05:14:42;100579.09;;;20.23;62.04
81033;BME280;70514;52.478;6.102;2023-07-28T05:17:11;100576.84;;;20.13;62.15
81033;BME280;70514;52.478;6.102;2023-07-28T05:19:42;100573.69;;;20.53;61.06
81033;BME280;70514;52.478;6.102;2023-07-28T05:22:11;100573.31;;;20.63;57.90
81033;BME280;70514;52.478;6.102;2023-07-28T05:24:41;100571.63;;;20.38;58.99
81033;BME280;70514;52.478;6.102;2023-07-28T05:27:10;100574.22;;;20.39;62.77
81033;BME280;70514;52.478;6.102;2023-07-28T05:29:40;100573.38;;;20.62;60.99
81033;BME280;70514;52.478;6.102;2023-07-28T05:32:09;100571.59;;;20.62;58.50
81033;BME280;70514;52.478;6.102;2023-07-28T05:34:42;100577.38;;;20.47;63.89
81033;BME280;70514;52.478;6.102;2023-07-28T05:37:12;100578.66;;;20.60;60.84
81033;BME280;70514;52.478;6.102;2023-07-28T05:39:41;100581.34;;;21.04;56.79
81033;BME280;70514;52.478;6.102;2023-07-28T05:42:10;100582.78;;;21.12;55.95
81033;BME280;70514;52.478;6.102;2023-07-28T05:44:39;100580.13;;;21.36;55.09
81033;BME280;70514;52.478;6.102;2023-07-28T05:47:09;100585.72;;;21.27;65.52
81033;BME280;70514;52.478;6.102;2023-07-28T05:49:38;100589.88;;;21.54;56.94
81033;BME280;70514;52.478;6.102;2023-07-28T05:52:08;100587.25;;;21.32;62.77
81033;BME280;70514;52.478;6.102;2023-07-28T05:54:37;100587.44;;;21.49;57.97
81033;BME280;70514;52.478;6.102;2023-07-28T05:57:06;100590.25;;;21.45;57.91
81033;BME280;70514;52.478;6.102;2023-07-28T05:59:36;100587.25;;;21.32;59.20
81033;BME280;70514;52.478;6.102;2023-07-28T06:02:06;100594.88;;;21.38;54.68
81033;BME280;70514;52.478;6.102;2023-07-28T06:04:35;100595.25;;;21.29;68.44
81033;BME280;70514;52.478;6.102;2023-07-28T06:07:04;100602.69;;;21.40;59.09
81033;BME280;70514;52.478;6.102;2023-07-28T06:09:34;100593.44;;;21.51;57.35
81033;BME280;70514;52.478;6.102;2023-07-28T06:12:03;100596.69;;;21.58;55.80
81033;BME280;70514;52.478;6.102;2023-07-28T06:14:32;100603.78;;;21.76;59.37
81033;BME280;70514;52.478;6.102;2023-07-28T06:17:02;100596.78;;;21.77;53.34
81033;BME280;70514;52.478;6.102;2023-07-28T06:19:31;100600.06;;;21.82;53.59
81033;BME280;70514;52.478;6.102;2023-07-28T06:22:00;100606.28;;;21.79;53.46
81033;BME280;70514;52.478;6.102;2023-07-28T06:24:30;100609.72;;;21.81;55.40
81033;BME280;70514;52.478;6.102;2023-07-28T06:26:59;100617.75;;;21.77;57.56
81033;BME280;70514;52.478;6.102;2023-07-28T06:29:28;100627.22;;;21.81;55.06
81033;BME280;70514;52.478;6.102;2023-07-28T06:31:58;100621.09;;;21.80;53.32
81033;BME280;70514;52.478;6.102;2023-07-28T06:34:27;100626.47;;;21.55;57.53
81033;BME280;70514;52.478;6.102;2023-07-28T06:36:56;100627.63;;;21.70;56.72
81033;BME280;70514;52.478;6.102;2023-07-28T06:39:26;100633.75;;;21.71;53.55
81033;BME280;70514;52.478;6.102;2023-07-28T06:41:56;100637.50;;;21.63;55.03
81033;BME280;70514;52.478;6.102;2023-07-28T06:44:26;100645.09;;;21.49;56.80
81033;BME280;70514;52.478;6.102;2023-07-28T06:46:54;100642.38;;;21.51;55.25
81033;BME280;70514;52.478;6.102;2023-07-28T06:49:24;100650.84;;;21.57;58.13
81033;BME280;70514;52.478;6.102;2023-07-28T06:51:53;100654.34;;;21.58;56.99
81033;BME280;70514;52.478;6.102;2023-07-28T06:54:22;100660.81;;;21.49;54.60
81033;BME280;70514;52.478;6.102;2023-07-28T06:56:51;100662.00;;;21.41;59.45
81033;BME280;70514;52.478;6.102;2023-07-28T06:59:20;100666.09;;;21.48;56.08
81033;BME280;70514;52.478;6.102;2023-07-28T07:01:50;100667.69;;;21.74;54.07
81033;BME280;70514;52.478;6.102;2023-07-28T07:04:20;100669.91;;;21.61;56.66
81033;BME280;70514;52.478;6.102;2023-07-28T07:06:49;100663.41;;;21.71;55.06
81033;BME280;70514;52.478;6.102;2023-07-28T07:09:18;100671.00;;;21.77;59.56
81033;BME280;70514;52.478;6.102;2023-07-28T07:11:48;100681.22;;;22.07;53.41
81033;BME280;70514;52.478;6.102;2023-07-28T07:14:17;100682.66;;;21.92;53.95
81033;BME280;70514;52.478;6.102;2023-07-28T07:16:45;100680.97;;;21.91;53.57
81033;BME280;70514;52.478;6.102;2023-07-28T07:19:15;100678.41;;;21.89;53.46
81033;BME280;70514;52.478;6.102;2023-07-28T07:21:44;100683.44;;;21.95;54.60
81033;BME280;70514;52.478;6.102;2023-07-28T07:24:13;100688.09;;;22.09;54.30
81033;BME280;70514;52.478;6.102;2023-07-28T07:26:42;100685.88;;;22.20;52.15
81033;BME280;70514;52.478;6.102;2023-07-28T07:29:11;100690.03;;;22.26;51.93
81033;BME280;70514;52.478;6.102;2023-07-28T07:31:41;100697.53;;;22.13;61.16
81033;BME280;70514;52.478;6.102;2023-07-28T07:34:10;100697.69;;;22.10;55.35
81033;BME280;70514;52.478;6.102;2023-07-28T07:36:39;100694.63;;;21.99;54.42
81033;BME280;70514;52.478;6.102;2023-07-28T07:39:08;100692.16;;;21.96;58.16
81033;BME280;70514;52.478;6.102;2023-07-28T07:41:37;100695.53;;;21.98;56.94
81033;BME280;70514;52.478;6.102;2023-07-28T07:44:07;100703.31;;;22.01;54.01
81033;BME280;70514;52.478;6.102;2023-07-28T07:46:36;100697.13;;;21.80;59.18
81033;BME280;70514;52.478;6.102;2023-07-28T07:49:05;100704.91;;;21.82;55.04
81033;BME280;70514;52.478;6.102;2023-07-28T07:51:34;100707.06;;;21.94;53.68
81033;BME280;70514;52.478;6.102;2023-07-28T07:54:04;100708.78;;;21.95;54.42
81033;BME280;70514;52.478;6.102;2023-07-28T07:56:33;100714.94;;;21.94;54.24
81033;BME280;70514;52.478;6.102;2023-07-28T07:59:02;100721.56;;;22.02;53.40
81033;BME280;70514;52.478;6.102;2023-07-28T08:01:32;100713.00;;;21.99;54.17
81033;BME280;70514;52.478;6.102;2023-07-28T08:04:01;100724.94;;;22.06;53.08
81033;BME280;70514;52.478;6.102;2023-07-28T08:06:31;100722.19;;;22.09;52.59
81033;BME280;70514;52.478;6.102;2023-07-28T08:09:00;100729.09;;;22.12;53.61
81033;BME280;70514;52.478;6.102;2023-07-28T08:11:29;100732.00;;;22.04;52.92
81033;BME280;70514;52.478;6.102;2023-07-28T08:13:58;100738.25;;;22.01;52.91
81033;BME280;70514;52.478;6.102;2023-07-28T08:16:27;100740.69;;;21.83;54.42
81033;BME280;70514;52.478;6.102;2023-07-28T08:18:56;100748.25;;;21.69;64.39
81033;BME280;70514;52.478;6.102;2023-07-28T08:21:26;100748.31;;;21.89;55.41
81033;BME280;70514;52.478;6.102;2023-07-28T08:23:55;100749.16;;;21.68;54.20
81033;BME280;70514;52.478;6.102;2023-07-28T08:26:24;100745.44;;;21.73;55.89
81033;BME280;70514;52.478;6.102;2023-07-28T08:28:53;100745.50;;;21.72;59.29
81033;BME280;70514;52.478;6.102;2023-07-28T08:31:23;100747.84;;;21.79;54.33
81033;BME280;70514;52.478;6.102;2023-07-28T08:33:52;100744.59;;;21.73;54.88
81033;BME280;70514;52.478;6.102;2023-07-28T08:36:21;100748.78;;;21.77;55.00
81033;BME280;70514;52.478;6.102;2023-07-28T08:38:50;100754.19;;;21.74;57.83
81033;BME280;70514;52.478;6.102;2023-07-28T08:41:20;100769.47;;;21.62;57.26
81033;BME280;70514;52.478;6.102;2023-07-28T08:43:49;100761.38;;;21.69;58.58
81033;BME280;70514;52.478;6.102;2023-07-28T08:46:20;100758.91;;;21.64;54.46
81033;BME280;70514;52.478;6.102;2023-07-28T08:48:49;100762.41;;;21.65;57.99
81033;BME280;70514;52.478;6.102;2023-07-28T08:51:18;100760.56;;;21.67;54.17
81033;BME280;70514;52.478;6.102;2023-07-28T08:53:47;100765.44;;;21.54;58.33
81033;BME280;70514;52.478;6.102;2023-07-28T08:56:17;100766.56;;;21.70;54.46
81033;BME280;70514;52.478;6.102;2023-07-28T08:58:46;100768.09;;;21.52;63.17
81033;BME280;70514;52.478;6.102;2023-07-28T09:01:15;100767.88;;;21.35;67.06
81033;BME280;70514;52.478;6.102;2023-07-28T09:03:44;100770.56;;;21.34;58.82
81033;BME280;70514;52.478;6.102;2023-07-28T09:06:14;100766.50;;;21.48;55.14
81033;BME280;70514;52.478;6.102;2023-07-28T09:08:43;100776.69;;;21.56;55.94
81033;BME280;70514;52.478;6.102;2023-07-28T09:11:13;100771.94;;;21.44;60.17
81033;BME280;70514;52.478;6.102;2023-07-28T09:13:42;100776.22;;;21.68;55.05
81033;BME280;70514;52.478;6.102;2023-07-28T09:16:18;100778.44;;;21.79;54.36
81033;BME280;70514;52.478;6.102;2023-07-28T09:18:48;100772.59;;;21.49;56.03
81033;BME280;70514;52.478;6.102;2023-07-28T09:21:18;100772.53;;;21.50;60.55
81033;BME280;70514;52.478;6.102;2023-07-28T09:23:50;100777.16;;;21.44;59.11
81033;BME280;70514;52.478;6.102;2023-07-28T09:26:20;100777.38;;;21.38;57.20
81033;BME280;70514;52.478;6.102;2023-07-28T09:28:49;100779.41;;;21.30;67.06
81033;BME280;70514;52.478;6.102;2023-07-28T09:31:28;100782.34;;;21.22;57.68
81033;BME280;70514;52.478;6.102;2023-07-28T09:33:58;100775.44;;;21.19;65.63
81033;BME280;70514;52.478;6.102;2023-07-28T09:36:27;100773.56;;;21.23;69.61
81033;BME280;70514;52.478;6.102;2023-07-28T09:38:57;100778.34;;;21.35;58.43
81033;BME280;70514;52.478;6.102;2023-07-28T09:41:29;100780.53;;;21.24;61.76
81033;BME280;70514;52.478;6.102;2023-07-28T09:43:58;100780.00;;;21.38;60.30
81033;BME280;70514;52.478;6.102;2023-07-28T09:46:28;100776.47;;;21.62;63.07
81033;BME280;70514;52.478;6.102;2023-07-28T09:48:59;100789.69;;;21.59;71.99
81033;BME280;70514;52.478;6.102;2023-07-28T09:51:33;100787.75;;;21.64;58.53
81033;BME280;70514;52.478;6.102;2023-07-28T09:54:07;100780.69;;;21.88;61.65
81033;BME280;70514;52.478;6.102;2023-07-28T09:56:41;100782.31;;;21.69;60.45
81033;BME280;70514;52.478;6.102;2023-07-28T09:59:11;100788.75;;;21.83;59.17
81033;BME280;70514;52.478;6.102;2023-07-28T10:01:41;100779.13;;;21.84;56.21
81033;BME280;70514;52.478;6.102;2023-07-28T10:04:13;100783.44;;;21.85;56.02
81033;BME280;70514;52.478;6.102;2023-07-28T10:06:44;100786.84;;;21.87;61.73
81033;BME280;70514;52.478;6.102;2023-07-28T10:09:13;100782.50;;;22.09;53.63
81033;BME280;70514;52.478;6.102;2023-07-28T10:11:45;100779.69;;;22.14;55.83
81033;BME280;70514;52.478;6.102;2023-07-28T10:14:33;100787.50;;;22.15;56.21
81033;BME280;70514;52.478;6.102;2023-07-28T10:17:04;100785.75;;;22.37;57.43
81033;BME280;70514;52.478;6.102;2023-07-28T10:19:35;100792.53;;;22.21;64.55
81033;BME280;70514;52.478;6.102;2023-07-28T10:22:11;100795.56;;;22.32;55.56
81033;BME280;70514;52.478;6.102;2023-07-28T10:24:51;100794.72;;;22.32;67.07
81033;BME280;70514;52.478;6.102;2023-07-28T10:27:36;100790.78;;;22.42;68.73
81033;BME280;70514;52.478;6.102;2023-07-28T10:30:11;100788.25;;;22.61;53.91
81033;BME280;70514;52.478;6.102;2023-07-28T10:32:44;100793.69;;;22.56;66.52
81033;BME280;70514;52.478;6.102;2023-07-28T10:37:46;100792.59;;;22.62;66.50
81033;BME280;70514;52.478;6.102;2023-07-28T10:40:34;100784.72;;;22.62;58.91
81033;BME280;70514;52.478;6.102;2023-07-28T10:43:04;100788.28;;;23.01;54.88
81033;BME280;70514;52.478;6.102;2023-07-28T10:45:33;100786.72;;;23.36;65.66
81033;BME280;70514;52.478;6.102;2023-07-28T10:48:03;100783.94;;;23.78;63.11
81033;BME280;70514;52.478;6.102;2023-07-28T10:50:32;100794.13;;;24.22;65.15
81033;BME280;70514;52.478;6.102;2023-07-28T10:53:02;100790.75;;;24.20;61.68
81033;BME280;70514;52.478;6.102;2023-07-28T10:55:31;100776.97;;;24.49;56.74
81033;BME280;70514;52.478;6.102;2023-07-28T10:58:00;100788.53;;;25.31;61.24
81033;BME280;70514;52.478;6.102;2023-07-28T11:00:30;100788.00;;;26.65;53.60
81033;BME280;70514;52.478;6.102;2023-07-28T11:02:59;100784.34;;;26.68;56.13
81033;BME280;70514;52.478;6.102;2023-07-28T11:05:29;100787.72;;;26.70;51.69
81033;BME280;70514;52.478;6.102;2023-07-28T11:08:02;100780.00;;;26.67;46.62
81033;BME280;70514;52.478;6.102;2023-07-28T11:10:31;100788.88;;;26.66;54.24
81033;BME280;70514;52.478;6.102;2023-07-28T11:13:02;100785.38;;;26.20;51.83
81033;BME280;70514;52.478;6.102;2023-07-28T11:15:52;100778.44;;;26.49;52.54
81033;BME280;70514;52.478;6.102;2023-07-28T11:18:21;100779.06;;;26.07;47.87
81033;BME280;70514;52.478;6.102;2023-07-28T11:20:50;100778.47;;;26.02;43.98
81033;BME280;70514;52.478;6.102;2023-07-28T11:23:19;100782.81;;;26.18;43.28
81033;BME280;70514;52.478;6.102;2023-07-28T11:25:49;100779.91;;;26.39;53.64
81033;BME280;70514;52.478;6.102;2023-07-28T11:28:19;100784.78;;;26.15;54.83
81033;BME280;70514;52.478;6.102;2023-07-28T11:30:48;100778.44;;;26.79;43.20
81033;BME280;70514;52.478;6.102;2023-07-28T11:33:18;100781.88;;;26.35;42.26
81033;BME280;70514;52.478;6.102;2023-07-28T11:35:48;100777.53;;;27.08;46.17
81033;BME280;70514;52.478;6.102;2023-07-28T11:38:17;100785.72;;;26.14;46.08
81033;BME280;70514;52.478;6.102;2023-07-28T11:40:47;100795.84;;;25.26;53.07
81033;BME280;70514;52.478;6.102;2023-07-28T11:43:17;100786.50;;;25.85;54.28
81033;BME280;70514;52.478;6.102;2023-07-28T11:45:46;100781.72;;;26.82;44.79
81033;BME280;70514;52.478;6.102;2023-07-28T11:48:16;100780.78;;;26.53;41.80
81033;BME280;70514;52.478;6.102;2023-07-28T11:50:47;100780.41;;;26.45;42.53
81033;BME280;70514;52.478;6.102;2023-07-28T11:53:17;100782.25;;;27.03;46.55
81033;BME280;70514;52.478;6.102;2023-07-28T11:55:47;100779.41;;;27.63;45.75
81033;BME280;70514;52.478;6.102;2023-07-28T11:58:16;100779.22;;;28.07;50.10
81033;BME280;70514;52.478;6.102;2023-07-28T12:00:45;100780.22;;;28.85;46.99
81033;BME280;70514;52.478;6.102;2023-07-28T12:03:14;100774.13;;;28.30;38.77
81033;BME280;70514;52.478;6.102;2023-07-28T12:06:04;100785.56;;;28.18;40.47
81033;BME280;70514;52.478;6.102;2023-07-28T12:08:38;100774.03;;;28.05;42.64
81033;BME280;70514;52.478;6.102;2023-07-28T12:11:13;100772.59;;;29.05;51.99
81033;BME280;70514;52.478;6.102;2023-07-28T12:13:52;100774.38;;;28.92;37.29
81033;BME280;70514;52.478;6.102;2023-07-28T12:16:47;100781.75;;;28.22;49.18
81033;BME280;70514;52.478;6.102;2023-07-28T12:19:20;100783.84;;;27.48;40.75
81033;BME280;70514;52.478;6.102;2023-07-28T12:21:49;100788.19;;;26.62;48.45
81033;BME280;70514;52.478;6.102;2023-07-28T12:24:18;100783.97;;;26.44;49.61
81033;BME280;70514;52.478;6.102;2023-07-28T12:26:48;100780.78;;;26.08;49.77
81033;BME280;70514;52.478;6.102;2023-07-28T12:29:19;100784.97;;;25.80;45.47
81033;BME280;70514;52.478;6.102;2023-07-28T12:31:58;100794.16;;;25.73;48.49
81033;BME280;70514;52.478;6.102;2023-07-28T12:34:31;100785.13;;;25.93;52.05
81033;BME280;70514;52.478;6.102;2023-07-28T12:37:18;100795.34;;;26.90;55.45
81033;BME280;70514;52.478;6.102;2023-07-28T12:40:07;100808.56;;;26.60;53.22
81033;BME280;70514;52.478;6.102;2023-07-28T12:42:57;100811.78;;;26.04;45.31
81033;BME280;70514;52.478;6.102;2023-07-28T12:45:29;100820.59;;;25.39;57.37
81033;BME280;70514;52.478;6.102;2023-07-28T12:48:19;100810.94;;;25.07;50.26
81033;BME280;70514;52.478;6.102;2023-07-28T12:50:49;100808.00;;;24.95;53.06
81033;BME280;70514;52.478;6.102;2023-07-28T12:53:31;100807.25;;;25.09;57.58
81033;BME280;70514;52.478;6.102;2023-07-28T12:56:00;100814.84;;;25.32;47.14
81033;BME280;70514;52.478;6.102;2023-07-28T12:58:30;100812.19;;;25.32;48.62
81033;BME280;70514;52.478;6.102;2023-07-28T13:01:03;100808.03;;;25.28;48.90
81033;BME280;70514;52.478;6.102;2023-07-28T13:03:33;100810.66;;;25.28;51.49
81033;BME280;70514;52.478;6.102;2023-07-28T13:06:03;100815.25;;;25.40;56.79
81033;BME280;70514;52.478;6.102;2023-07-28T13:08:32;100820.09;;;25.32;53.80
81033;BME280;70514;52.478;6.102;2023-07-28T13:11:05;100806.94;;;25.15;57.23
81033;BME280;70514;52.478;6.102;2023-07-28T13:13:37;100814.56;;;24.87;53.28